createdAt,value
2019-03-04T00:02:15.871Z,-1.98
2019-03-04T00:04:45.557Z,-2.26
2019-03-04T00:07:15.487Z,-2.10
2019-03-04T00:09:45.199Z,-2.10
2019-03-04T00:12:15.212Z,-2.27
2019-03-04T00:14:44.822Z,-2.33
2019-03-04T00:17:14.527Z,-2.11
2019-03-04T00:19:44.751Z,-2.16
2019-03-04T00:22:14.452Z,-2.10
2019-03-04T00:24:44.373Z,-2.31
2019-03-04T00:27:14.689Z,-2.27
2019-03-04T00:29:44.401Z,-2.25
2019-03-04T00:32:14.211Z,-2.24
2019-03-04T00:34:44.327Z,-2.28
2019-03-04T00:37:14.033Z,-2.18
2019-03-04T00:39:43.742Z,-2.41
2019-03-04T00:42:13.971Z,-2.30
2019-03-04T00:44:43.673Z,-2.35
2019-03-04T00:47:13.381Z,-2.40
2019-03-04T00:49:43.508Z,-2.26
2019-03-04T00:52:13.211Z,-2.30
2019-03-04T00:54:42.857Z,-2.27
2019-03-04T00:57:13.036Z,-2.36
2019-03-04T00:59:42.758Z,-2.33
2019-03-04T01:02:12.451Z,-2.36
2019-03-04T01:04:42.575Z,-2.38
2019-03-04T01:07:12.380Z,-2.24
2019-03-04T01:09:42.087Z,-2.12
2019-03-04T01:12:12.216Z,-2.23
2019-03-04T01:14:42.018Z,-2.19
2019-03-04T01:17:11.726Z,-2.30
2019-03-04T01:19:41.951Z,-2.28
2019-03-04T01:22:11.653Z,-2.22
2019-03-04T01:24:41.309Z,-2.30
2019-03-04T01:27:11.529Z,-2.32
2019-03-04T01:29:41.291Z,-2.52
2019-03-04T01:32:10.999Z,-2.45
2019-03-04T01:34:41.053Z,-2.41
2019-03-04T01:37:10.778Z,-2.57
2019-03-04T01:39:40.533Z,-2.46
2019-03-04T01:42:10.701Z,-2.59
2019-03-04T01:44:40.362Z,-2.45
2019-03-04T01:47:10.016Z,-2.51
2019-03-04T01:49:40.295Z,-2.54
2019-03-04T01:52:09.948Z,-2.50
2019-03-04T01:54:39.604Z,-2.51
2019-03-04T01:57:09.829Z,-2.63
2019-03-04T01:59:39.480Z,-2.51
2019-03-04T02:02:09.321Z,-2.54
2019-03-04T02:04:39.476Z,-2.64
2019-03-04T02:07:09.176Z,-2.80
2019-03-04T02:09:38.885Z,-2.51
2019-03-04T02:12:09.004Z,-2.47
2019-03-04T02:14:38.705Z,-2.38
2019-03-04T02:17:08.428Z,-2.57
2019-03-04T02:19:38.645Z,-2.60
2019-03-04T02:22:08.342Z,-2.41
2019-03-04T02:24:37.993Z,-2.50
2019-03-04T02:27:08.128Z,-2.39
2019-03-04T02:29:37.880Z,-2.31
2019-03-04T02:32:07.595Z,-2.31
2019-03-04T02:34:37.605Z,-2.25
2019-03-04T02:37:07.313Z,-2.20
2019-03-04T02:39:37.028Z,-2.18
2019-03-04T02:42:07.146Z,-2.26
2019-03-04T02:44:36.949Z,-2.47
2019-03-04T02:47:06.606Z,-2.37
2019-03-04T02:49:36.788Z,-2.31
2019-03-04T02:52:06.506Z,-2.12
2019-03-04T02:54:36.194Z,-2.08
2019-03-04T02:57:06.417Z,-2.23
2019-03-04T02:59:36.110Z,-2.17
2019-03-04T03:02:07.260Z,-2.16
2019-03-04T03:04:37.435Z,-2.09
2019-03-04T03:07:07.212Z,-2.03
2019-03-04T03:09:36.903Z,-1.97
2019-03-04T03:12:07.127Z,-2.04
2019-03-04T03:14:36.834Z,-2.03
2019-03-04T03:17:06.543Z,-2.00
2019-03-04T03:19:36.663Z,-1.95
2019-03-04T03:22:06.364Z,-2.11
2019-03-04T03:24:36.059Z,-1.93
2019-03-04T03:27:06.192Z,-1.93
2019-03-04T03:29:35.906Z,-1.99
2019-03-04T03:32:05.714Z,-1.95
2019-03-04T03:34:35.938Z,-2.14
2019-03-04T03:37:05.588Z,-2.08
2019-03-04T03:39:35.313Z,-1.92
2019-03-04T03:42:05.574Z,-2.01
2019-03-04T03:44:35.276Z,-1.90
2019-03-04T03:47:04.991Z,-1.86
2019-03-04T03:49:36.236Z,-1.80
2019-03-04T03:52:06.045Z,-1.75
2019-03-04T03:54:37.285Z,-1.81
2019-03-04T03:57:08.017Z,-1.74
2019-03-04T03:59:38.248Z,-1.84
2019-03-04T04:02:07.892Z,-1.82
2019-03-04T04:04:37.592Z,-1.71
2019-03-04T04:07:07.878Z,-1.79
2019-03-04T04:09:37.694Z,-1.93
2019-03-04T04:12:07.400Z,-1.76
2019-03-04T04:14:37.515Z,-1.72
2019-03-04T04:17:07.229Z,-1.82
2019-03-04T04:19:36.934Z,-1.77
2019-03-04T04:22:07.047Z,-1.73
2019-03-04T04:24:36.757Z,-1.70
2019-03-04T04:27:06.580Z,-1.78
2019-03-04T04:29:37.195Z,-1.94
2019-03-04T04:32:06.850Z,-1.73
2019-03-04T04:34:36.619Z,-1.83
2019-03-04T04:37:06.836Z,-1.80
2019-03-04T04:39:36.546Z,-1.77
2019-03-04T04:42:06.331Z,-1.83
2019-03-04T04:44:37.496Z,-1.86
2019-03-04T04:47:07.409Z,-1.73
2019-03-04T04:49:37.116Z,-1.64
2019-03-04T04:52:07.175Z,-1.61
2019-03-04T04:54:36.947Z,-1.59
2019-03-04T04:57:08.616Z,-1.55
2019-03-04T04:59:38.413Z,-1.74
2019-03-04T05:02:08.123Z,-1.65
2019-03-04T05:04:38.340Z,-1.65
2019-03-04T05:07:08.045Z,-1.54
2019-03-04T05:09:37.698Z,-1.64
2019-03-04T05:12:07.886Z,-1.45
2019-03-04T05:14:37.586Z,-1.41
2019-03-04T05:17:07.231Z,-1.30
2019-03-04T05:19:39.954Z,-1.22
2019-03-04T05:22:10.291Z,-0.90
2019-03-04T05:24:40.408Z,-0.86
2019-03-04T05:27:10.307Z,-0.95
2019-03-04T05:29:40.033Z,-0.40
2019-03-04T05:32:10.154Z,0.32
2019-03-04T05:34:39.859Z,0.20
2019-03-04T05:37:09.773Z,0.29
2019-03-04T05:39:39.894Z,-0.11
2019-03-04T05:42:10.017Z,-0.27
2019-03-04T05:44:39.683Z,-0.35
2019-03-04T05:47:09.835Z,-0.33
2019-03-04T05:49:39.543Z,-0.28
2019-03-04T05:52:09.248Z,-0.30
2019-03-04T05:54:39.470Z,-0.26
2019-03-04T05:57:09.177Z,-0.19
2019-03-04T05:59:38.991Z,-0.22
2019-03-04T06:02:09.108Z,-0.21
2019-03-04T06:04:38.817Z,-0.17
2019-03-04T06:07:10.080Z,-0.12
2019-03-04T06:09:40.116Z,-0.03
2019-03-04T06:12:09.890Z,0.07
2019-03-04T06:14:39.697Z,-0.19
2019-03-04T06:17:10.843Z,-0.05
2019-03-04T06:19:40.653Z,0.00
2019-03-04T06:22:10.463Z,0.14
2019-03-04T06:24:40.582Z,0.13
2019-03-04T06:27:10.388Z,0.26
2019-03-04T06:29:40.100Z,0.37
2019-03-04T06:32:10.219Z,0.39
2019-03-04T06:34:39.928Z,0.48
2019-03-04T06:37:09.632Z,0.41
2019-03-04T06:39:39.852Z,0.46
2019-03-04T06:42:09.497Z,0.31
2019-03-04T06:44:39.147Z,0.49
2019-03-04T06:47:09.289Z,0.49
2019-03-04T06:49:38.996Z,0.40
2019-03-04T06:52:08.702Z,0.64
2019-03-04T06:54:44.765Z,0.82
2019-03-04T06:57:15.572Z,0.80
2019-03-04T07:00:04.147Z,0.95
2019-03-04T07:02:45.422Z,1.18
2019-03-04T07:05:27.625Z,1.45
2019-03-04T07:07:57.332Z,1.37
2019-03-04T07:10:27.452Z,1.38
2019-03-04T07:12:57.114Z,1.52
2019-03-04T07:15:26.973Z,1.52
2019-03-04T07:17:57.191Z,1.61
2019-03-04T07:20:27.003Z,1.61
2019-03-04T07:22:56.713Z,1.68
2019-03-04T07:25:28.479Z,1.75
2019-03-04T07:27:58.174Z,1.82
2019-03-04T07:30:27.831Z,1.93
2019-03-04T07:32:58.104Z,2.01
2019-03-04T07:35:27.712Z,2.06
2019-03-04T07:38:23.161Z,2.11
2019-03-04T07:40:53.337Z,2.23
2019-03-04T07:43:22.995Z,2.29
2019-03-04T07:45:52.758Z,2.40
2019-03-04T07:48:23.084Z,2.54
2019-03-04T07:50:52.794Z,2.58
2019-03-04T07:53:22.505Z,2.56
2019-03-04T07:55:52.719Z,2.66
2019-03-04T07:58:22.304Z,2.76
2019-03-04T08:00:52.033Z,2.77
2019-03-04T08:03:22.165Z,2.86
2019-03-04T08:05:51.859Z,2.93
2019-03-04T08:08:21.677Z,3.01
2019-03-04T08:10:57.523Z,3.16
2019-03-04T08:13:39.267Z,3.23
2019-03-04T08:16:11.009Z,3.36
2019-03-04T08:18:41.809Z,3.38
2019-03-04T08:21:11.920Z,3.27
2019-03-04T08:23:41.743Z,3.33
2019-03-04T08:26:11.449Z,3.39
2019-03-04T08:28:41.588Z,3.50
2019-03-04T08:31:11.270Z,3.45
2019-03-04T08:33:40.985Z,3.62
2019-03-04T08:36:11.083Z,3.73
2019-03-04T08:38:40.811Z,3.82
2019-03-04T08:41:10.520Z,3.93
2019-03-04T08:43:40.645Z,4.11
2019-03-04T08:46:10.338Z,4.18
2019-03-04T08:48:40.048Z,4.08
2019-03-04T08:51:10.171Z,4.13
2019-03-04T08:53:39.879Z,4.32
2019-03-04T08:56:09.588Z,4.33
2019-03-04T08:58:39.806Z,4.43
2019-03-04T09:01:09.518Z,4.48
2019-03-04T09:03:39.228Z,4.61
2019-03-04T09:06:09.441Z,4.76
2019-03-04T09:08:39.251Z,4.88
2019-03-04T09:11:09.502Z,4.94
2019-03-04T09:13:40.635Z,5.06
2019-03-04T09:16:10.282Z,5.16
2019-03-04T09:18:41.576Z,5.12
2019-03-04T09:21:11.997Z,5.08
2019-03-04T09:23:41.699Z,5.13
2019-03-04T09:26:12.434Z,5.20
2019-03-04T09:28:42.543Z,5.22
2019-03-04T09:31:13.774Z,5.13
2019-03-04T09:33:44.536Z,5.17
2019-03-04T09:36:14.707Z,5.20
2019-03-04T09:38:44.564Z,5.39
2019-03-04T09:41:15.813Z,5.51
2019-03-04T09:43:45.666Z,5.50
2019-03-04T09:46:15.966Z,5.41
2019-03-04T09:48:45.752Z,5.51
2019-03-04T09:51:24.102Z,5.44
2019-03-04T09:53:47.421Z,5.51
2019-03-04T09:56:17.126Z,5.52
2019-03-04T09:58:46.843Z,5.58
2019-03-04T10:01:26.040Z,5.61
2019-03-04T10:04:09.629Z,5.76
2019-03-04T10:06:59.393Z,5.76
2019-03-04T10:09:51.719Z,5.80
2019-03-04T10:12:52.336Z,5.81
2019-03-04T10:15:25.317Z,5.72
2019-03-04T10:18:15.285Z,5.77
2019-03-04T10:21:09.849Z,5.80
2019-03-04T10:23:53.075Z,5.86
2019-03-04T10:27:05.341Z,5.81
2019-03-04T10:30:02.009Z,5.77
2019-03-04T10:33:20.445Z,5.74
2019-03-04T10:36:23.157Z,5.75
2019-03-04T10:39:17.784Z,5.77
2019-03-04T10:42:16.931Z,5.75
2019-03-04T10:44:53.856Z,5.78
2019-03-04T10:47:24.193Z,5.87
2019-03-04T10:49:54.022Z,5.92
2019-03-04T10:52:23.730Z,5.98
2019-03-04T10:54:54.007Z,6.08
2019-03-04T10:57:23.657Z,6.17
2019-03-04T10:59:53.367Z,6.24
2019-03-04T11:02:23.678Z,6.27
2019-03-04T11:04:53.423Z,6.27
2019-03-04T11:07:23.292Z,6.30
2019-03-04T11:09:53.681Z,6.37
2019-03-04T11:12:29.178Z,6.37
2019-03-04T11:15:00.852Z,6.39
2019-03-04T11:17:31.834Z,6.45
2019-03-04T11:20:11.168Z,6.54
2019-03-04T11:22:46.527Z,6.55
2019-03-04T11:25:18.757Z,6.60
2019-03-04T11:27:49.015Z,6.59
2019-03-04T11:30:34.151Z,6.67
2019-03-04T11:33:05.059Z,6.60
2019-03-04T11:35:35.363Z,6.61
2019-03-04T11:38:07.012Z,6.58
2019-03-04T11:40:40.382Z,6.53
2019-03-04T11:43:13.439Z,6.56
2019-03-04T11:45:43.809Z,6.52
2019-03-04T11:48:13.811Z,6.62
2019-03-04T11:50:46.376Z,6.64
2019-03-04T11:53:18.254Z,6.69
2019-03-04T11:55:47.982Z,6.62
2019-03-04T11:58:17.690Z,6.62
2019-03-04T12:00:49.422Z,6.67
2019-03-04T12:03:19.075Z,6.59
2019-03-04T12:05:49.196Z,6.64
2019-03-04T12:08:18.981Z,6.66
2019-03-04T12:10:48.691Z,6.66
2019-03-04T12:13:18.757Z,6.70
2019-03-04T12:15:48.720Z,6.69
2019-03-04T12:18:18.430Z,6.69
2019-03-04T12:20:48.650Z,6.72
2019-03-04T12:23:18.356Z,6.75
2019-03-04T12:25:48.166Z,6.78
2019-03-04T12:28:19.921Z,6.69
2019-03-04T12:30:49.615Z,6.68
2019-03-04T12:33:19.853Z,6.65
2019-03-04T12:35:49.509Z,6.70
2019-03-04T12:38:19.273Z,6.67
2019-03-04T12:40:52.181Z,6.65
2019-03-04T12:51:45.154Z,6.71
2019-03-04T12:54:14.847Z,6.69
2019-03-04T12:56:44.528Z,6.67
2019-03-04T12:59:14.691Z,6.64
2019-03-04T13:01:44.388Z,6.70
2019-03-04T13:04:14.105Z,6.65
2019-03-04T13:06:44.330Z,6.66
2019-03-04T13:09:14.852Z,6.62
2019-03-04T13:11:44.677Z,6.65
2019-03-04T13:14:14.884Z,6.67
2019-03-04T13:16:44.626Z,6.55
2019-03-04T13:19:14.279Z,6.57
2019-03-04T13:21:44.445Z,6.50
2019-03-04T13:24:14.089Z,6.40
2019-03-04T13:26:43.754Z,6.35
2019-03-04T13:29:13.860Z,6.28
2019-03-04T13:31:43.585Z,6.17
2019-03-04T13:34:13.273Z,6.21
2019-03-04T13:36:43.393Z,6.15
2019-03-04T13:39:13.043Z,6.15
2019-03-04T13:41:42.805Z,6.06
2019-03-04T13:44:12.898Z,5.96
2019-03-04T13:46:42.636Z,5.89
2019-03-04T13:49:12.290Z,5.97
2019-03-04T13:51:42.383Z,6.01
2019-03-04T13:54:12.066Z,6.00
2019-03-04T13:56:41.714Z,6.01
2019-03-04T13:59:12.009Z,5.99
2019-03-04T14:01:43.113Z,5.97
2019-03-04T14:04:38.581Z,5.95
2019-03-04T14:07:10.347Z,6.00
2019-03-04T14:09:40.461Z,5.97
2019-03-04T14:12:10.218Z,5.96
2019-03-04T14:14:40.406Z,5.91
2019-03-04T14:17:11.677Z,6.02
2019-03-04T14:19:41.352Z,6.08
2019-03-04T14:22:11.011Z,6.04
2019-03-04T14:24:41.179Z,6.16
2019-03-04T14:27:10.837Z,6.18
2019-03-04T14:29:40.550Z,6.12
2019-03-04T14:32:11.666Z,6.12
2019-03-04T14:34:41.375Z,6.15
2019-03-04T14:37:11.102Z,6.20
2019-03-04T14:39:41.323Z,6.17
2019-03-04T14:42:10.974Z,6.16
2019-03-04T14:44:40.623Z,6.18
2019-03-04T14:47:10.800Z,6.21
2019-03-04T14:49:44.800Z,6.12
2019-03-04T14:52:12.257Z,6.12
2019-03-04T14:54:41.902Z,6.12
2019-03-04T14:57:11.550Z,6.08
2019-03-04T14:59:41.652Z,6.11
2019-03-04T15:02:11.290Z,6.04
2019-03-04T15:04:40.986Z,6.09
2019-03-04T15:07:11.186Z,6.00
2019-03-04T15:09:49.070Z,5.97
2019-03-04T15:12:12.785Z,5.92
2019-03-04T15:14:43.447Z,5.90
2019-03-04T15:17:16.365Z,5.86
2019-03-04T15:19:45.810Z,5.81
2019-03-04T15:22:15.484Z,5.78
2019-03-04T15:24:45.195Z,5.84
2019-03-04T15:27:15.420Z,5.80
2019-03-04T15:29:45.220Z,5.73
2019-03-04T15:32:15.036Z,5.79
2019-03-04T15:34:45.152Z,5.84
2019-03-04T15:37:16.225Z,5.84
2019-03-04T15:39:46.417Z,5.89
2019-03-04T15:42:16.177Z,5.83
2019-03-04T15:44:45.842Z,5.79
2019-03-04T15:47:16.048Z,5.85
2019-03-04T15:49:45.757Z,5.94
2019-03-04T15:52:15.467Z,5.92
2019-03-04T15:54:45.693Z,5.88
2019-03-04T15:57:15.408Z,5.81
2019-03-04T15:59:45.040Z,5.78
2019-03-04T16:02:15.393Z,5.86
2019-03-04T16:04:46.057Z,5.84
2019-03-04T16:07:16.075Z,5.83
2019-03-04T16:09:46.100Z,5.78
2019-03-04T16:12:16.150Z,5.68
2019-03-04T16:14:46.021Z,5.96
2019-03-04T16:17:16.138Z,5.82
2019-03-04T16:19:45.840Z,5.76
2019-03-04T16:22:16.934Z,5.76
2019-03-04T16:24:49.129Z,5.78
2019-03-04T16:27:18.559Z,5.82
2019-03-04T16:29:48.262Z,5.79
2019-03-04T16:32:18.287Z,5.80
2019-03-04T16:34:47.987Z,5.79
2019-03-04T16:37:17.794Z,5.80
2019-03-04T16:39:47.914Z,5.78
2019-03-04T16:42:17.563Z,5.80
2019-03-04T16:44:47.337Z,5.73
2019-03-04T16:47:17.700Z,5.84
2019-03-04T16:49:47.465Z,5.78
2019-03-04T16:52:19.215Z,5.80
2019-03-04T16:54:49.370Z,5.77
2019-03-04T16:57:19.013Z,5.81
2019-03-04T16:59:48.753Z,5.67
2019-03-04T17:02:18.985Z,5.68
2019-03-04T17:04:48.585Z,5.73
2019-03-04T17:07:20.048Z,5.73
2019-03-04T17:09:50.680Z,5.71
2019-03-04T17:12:20.380Z,5.63
2019-03-04T17:14:50.054Z,5.70
2019-03-04T17:17:20.195Z,5.68
2019-03-04T17:19:50.071Z,5.66
2019-03-04T17:22:19.716Z,5.73
2019-03-04T17:24:50.276Z,5.64
2019-03-04T17:27:20.070Z,5.62
2019-03-04T17:29:49.897Z,5.53
2019-03-04T17:32:20.231Z,5.57
2019-03-04T17:34:50.023Z,5.52
2019-03-04T17:37:19.680Z,5.48
2019-03-04T17:39:52.214Z,5.51
2019-03-04T17:42:21.390Z,5.50
2019-03-04T17:44:51.601Z,5.50
2019-03-04T17:47:21.309Z,5.46
2019-03-04T17:49:50.950Z,5.44
2019-03-04T17:52:22.669Z,5.47
2019-03-04T17:54:52.560Z,5.47
2019-03-04T17:57:22.192Z,5.44
2019-03-04T17:59:52.380Z,5.42
2019-03-04T18:02:22.300Z,5.39
2019-03-04T18:04:52.074Z,5.31
2019-03-04T18:07:23.384Z,5.34
2019-03-04T18:09:54.044Z,5.27
2019-03-04T18:12:24.208Z,5.20
2019-03-04T18:14:53.852Z,5.16
2019-03-04T18:17:23.653Z,5.10
2019-03-04T18:19:53.709Z,5.03
2019-03-04T18:22:23.371Z,5.06
2019-03-04T18:24:53.084Z,5.13
2019-03-04T18:27:23.401Z,5.05
2019-03-04T18:30:05.302Z,4.97
2019-03-04T18:33:04.807Z,4.93
2019-03-04T18:35:46.333Z,4.98
2019-03-04T18:38:45.407Z,4.87
2019-03-04T18:41:36.145Z,4.81
2019-03-04T18:44:27.931Z,4.74
2019-03-04T18:47:12.634Z,4.74
2019-03-04T18:49:42.782Z,4.63
2019-03-04T18:52:12.500Z,4.67
2019-03-04T18:54:42.160Z,4.68
2019-03-04T18:57:12.939Z,4.55
2019-03-04T18:59:42.593Z,4.53
2019-03-04T19:02:12.253Z,4.56
2019-03-04T19:04:42.479Z,4.59
2019-03-04T19:07:12.164Z,4.48
2019-03-04T19:09:42.001Z,4.50
2019-03-04T19:12:13.303Z,4.51
2019-03-04T19:14:43.277Z,4.47
2019-03-04T19:17:13.197Z,4.46
2019-03-04T19:19:43.279Z,4.39
2019-03-04T19:22:13.105Z,4.35
2019-03-04T19:24:42.816Z,4.45
2019-03-04T19:27:12.928Z,4.30
2019-03-04T19:29:44.145Z,4.33
2019-03-04T19:32:14.290Z,4.36
2019-03-04T19:34:43.940Z,4.26
2019-03-04T19:37:13.609Z,4.15
2019-03-04T19:39:43.730Z,4.19
2019-03-04T19:42:13.425Z,4.14
2019-03-04T19:44:43.143Z,4.15
2019-03-04T19:47:13.569Z,4.19
2019-03-04T19:49:43.275Z,4.13
2019-03-04T19:52:12.923Z,4.10
2019-03-04T19:54:43.195Z,4.05
2019-03-04T19:57:12.853Z,3.97
2019-03-04T19:59:42.513Z,3.92
2019-03-04T20:02:12.697Z,3.95
2019-03-04T20:04:42.346Z,3.96
2019-03-04T20:07:11.945Z,3.90
2019-03-04T20:09:43.641Z,3.87
2019-03-04T20:12:13.289Z,3.75
2019-03-04T20:14:43.360Z,3.86
2019-03-04T20:17:13.132Z,3.89
2019-03-04T20:19:43.052Z,3.62
2019-03-04T20:22:13.142Z,3.65
2019-03-04T20:24:42.875Z,3.64
2019-03-04T20:27:12.583Z,3.61
2019-03-04T20:29:42.702Z,3.62
2019-03-04T20:32:13.538Z,3.61
2019-03-04T20:34:43.204Z,3.58
2019-03-04T20:37:14.535Z,3.48
2019-03-04T20:39:44.204Z,3.63
2019-03-04T20:42:13.849Z,3.53
2019-03-04T20:44:44.025Z,3.46
2019-03-04T20:47:13.591Z,3.60
2019-03-04T20:49:43.348Z,3.54
2019-03-04T20:52:13.823Z,3.45
2019-03-04T20:54:43.578Z,3.49
2019-03-04T20:57:13.281Z,3.45
2019-03-04T20:59:43.421Z,3.47
2019-03-04T21:02:14.790Z,3.37
2019-03-04T21:04:44.967Z,3.36
2019-03-04T21:07:18.553Z,3.45
2019-03-04T21:09:49.337Z,3.40
2019-03-04T21:12:19.094Z,3.36
2019-03-04T21:14:48.726Z,3.38
2019-03-04T21:17:18.806Z,3.34
2019-03-04T21:19:48.541Z,3.18
2019-03-04T21:22:18.435Z,3.30
2019-03-04T21:24:48.507Z,3.26
2019-03-04T21:27:18.283Z,3.23
2019-03-04T21:30:22.909Z,3.16
2019-03-04T21:32:53.126Z,3.13
2019-03-04T21:35:31.956Z,3.06
2019-03-04T21:38:02.126Z,3.08
2019-03-04T21:40:41.734Z,3.13
2019-03-04T21:43:15.015Z,3.11
2019-03-04T21:48:44.387Z,3.03
2019-03-04T21:51:20.178Z,3.03
2019-03-04T21:53:51.745Z,3.07
2019-03-04T21:56:44.274Z,3.09
2019-03-04T21:59:13.979Z,3.02
2019-03-04T22:01:52.941Z,3.01
2019-03-04T22:04:22.649Z,3.10
2019-03-04T22:06:52.815Z,2.96
2019-03-04T22:09:23.696Z,2.98
2019-03-04T22:11:53.347Z,2.93
2019-03-04T22:14:23.503Z,2.86
2019-03-04T22:16:53.203Z,2.80
2019-03-04T22:19:23.844Z,2.90
2019-03-04T22:21:54.051Z,2.89
2019-03-04T22:24:23.982Z,2.88
2019-03-04T22:26:53.757Z,2.87
2019-03-04T22:29:23.892Z,2.91
2019-03-04T22:31:53.540Z,2.79
2019-03-04T22:34:23.326Z,2.70
2019-03-04T22:36:53.552Z,2.77
2019-03-04T22:39:23.251Z,2.83
2019-03-04T22:41:53.051Z,2.77
2019-03-04T22:44:23.280Z,2.77
2019-03-04T22:46:52.982Z,2.72
2019-03-04T22:49:22.707Z,2.76
2019-03-04T22:51:52.887Z,2.72
2019-03-04T22:54:22.625Z,2.64
2019-03-04T22:56:52.416Z,2.71
2019-03-04T22:59:22.595Z,2.66
2019-03-04T23:01:54.466Z,2.63
2019-03-04T23:04:25.660Z,2.58
2019-03-04T23:06:58.578Z,2.56
2019-03-04T23:09:32.061Z,2.53
2019-03-04T23:12:10.751Z,2.51
2019-03-04T23:14:40.969Z,2.53
2019-03-04T23:17:10.681Z,2.53
2019-03-04T23:19:40.392Z,2.44
2019-03-04T23:22:10.613Z,2.44
2019-03-04T23:24:40.323Z,2.44
2019-03-04T23:27:10.232Z,2.48
2019-03-04T23:29:40.311Z,2.54
2019-03-04T23:32:10.054Z,2.50
2019-03-04T23:34:39.866Z,2.49
2019-03-04T23:37:09.990Z,2.52
2019-03-04T23:39:39.631Z,2.50
2019-03-04T23:42:09.347Z,2.54
2019-03-04T23:44:39.518Z,2.54
2019-03-04T23:47:09.231Z,2.47
2019-03-04T23:49:38.934Z,2.53
2019-03-04T23:52:09.164Z,2.54
2019-03-04T23:54:38.817Z,2.49
2019-03-04T23:57:08.577Z,2.54
2019-03-04T23:59:39.001Z,2.50
